Time;durP1;ratioP1;P1;durP2;ratioP2;P2;SDS_P1;SDS_P2;PMS_P1;PMS_P2;Temp;Humidity;BMP_temperature;BMP_pressure;BME280_temperature;BME280_humidity;BME280_pressure;Samples;Min_cycle;Max_cycle;Signal;HPM_P1;HPM_P2
2022/08/26 00:01:43;;;;;;;6.97;6.28;;;;;;;;;;4972756;28;20054;-75
2022/08/26 00:04:11;;;;;;;6.93;6.03;;;;;;;;;;4972760;28;20082;-75
2022/08/26 00:06:38;;;;;;;6.63;5.95;;;;;;;;;;4973139;28;20054;-75
2022/08/26 00:09:12;;;;;;;6.43;5.82;;;;;;;;;;4944261;28;20051;-75
2022/08/26 00:11:42;;;;;;;5.63;5.03;;;;;;;;;;4960119;28;20101;-75
2022/08/26 00:14:08;;;;;;;6.30;5.70;;;;;;;;;;4959403;28;20065;-75
2022/08/26 00:16:35;;;;;;;6.70;5.70;;;;;;;;;;4976670;28;20051;-75
2022/08/26 00:19:06;;;;;;;10.80;5.25;;;;;;;;;;4976331;28;20054;-75
2022/08/26 00:21:33;;;;;;;6.25;5.63;;;;;;;;;;4959144;28;20434;-74
2022/08/26 00:24:03;;;;;;;6.95;5.85;;;;;;;;;;4976358;28;20106;-75
2022/08/26 00:26:29;;;;;;;5.78;5.15;;;;;;;;;;4976145;28;20057;-74
2022/08/26 00:28:56;;;;;;;8.13;6.30;;;;;;;;;;4976108;28;20057;-75
2022/08/26 00:31:22;;;;;;;10.27;6.22;;;;;;;;;;4976264;28;20413;-76
2022/08/26 00:33:49;;;;;;;6.50;5.90;;;;;;;;;;4976085;28;20399;-76
2022/08/26 00:36:16;;;;;;;6.53;5.40;;;;;;;;;;4959157;28;20114;-75
2022/08/26 00:38:46;;;;;;;10.43;7.25;;;;;;;;;;4958938;28;20073;-74
2022/08/26 00:41:13;;;;;;;8.50;6.70;;;;;;;;;;4958807;28;20113;-75
2022/08/26 00:43:42;;;;;;;7.28;6.43;;;;;;;;;;4975961;28;20414;-75
2022/08/26 00:46:18;;;;;;;8.98;7.50;;;;;;;;;;4959554;28;20137;-75
2022/08/26 00:48:46;;;;;;;8.95;6.97;;;;;;;;;;4958384;28;20057;-75
2022/08/26 00:51:24;;;;;;;8.63;6.60;;;;;;;;;;4959004;28;20055;-75
2022/08/26 00:54:03;;;;;;;7.10;6.40;;;;;;;;;;4959422;28;20050;-75
2022/08/26 00:56:33;;;;;;;9.23;6.35;;;;;;;;;;4958786;28;20129;-75
2022/08/26 00:59:02;;;;;;;9.35;7.18;;;;;;;;;;4974337;28;20052;-75
2022/08/26 01:01:29;;;;;;;7.35;6.65;;;;;;;;;;4958580;28;20046;-76
2022/08/26 01:03:56;;;;;;;7.25;6.45;;;;;;;;;;4975435;28;20055;-75
2022/08/26 01:06:23;;;;;;;8.85;6.90;;;;;;;;;;4975635;28;20053;-75
2022/08/26 01:08:51;;;;;;;7.60;6.82;;;;;;;;;;4975454;28;20058;-75
2022/08/26 01:11:18;;;;;;;7.82;6.60;;;;;;;;;;4975611;28;20051;-75
2022/08/26 01:13:46;;;;;;;7.22;6.53;;;;;;;;;;4958170;28;20053;-75
2022/08/26 01:16:14;;;;;;;9.88;6.75;;;;;;;;;;4959629;28;20051;-74
2022/08/26 01:18:42;;;;;;;8.00;6.57;;;;;;;;;;4958143;28;20395;-76
2022/08/26 01:21:38;;;;;;;8.25;6.68;;;;;;;;;;4974673;28;20050;-76
2022/08/26 01:24:06;;;;;;;9.07;7.43;;;;;;;;;;4957940;28;20203;-75
2022/08/26 01:26:40;;;;;;;8.13;7.25;;;;;;;;;;4958290;28;20051;-75
2022/08/26 01:29:11;;;;;;;8.95;6.82;;;;;;;;;;4942317;28;20050;-75
2022/08/26 01:31:58;;;;;;;8.15;6.60;;;;;;;;;;4958166;28;20134;-75
2022/08/26 01:34:29;;;;;;;9.15;6.90;;;;;;;;;;4960253;28;20057;-75
2022/08/26 01:37:17;;;;;;;8.10;6.65;;;;;;;;;;4958211;28;20050;-75
2022/08/26 01:39:47;;;;;;;9.00;8.02;;;;;;;;;;4957417;28;20054;-74
2022/08/26 01:42:14;;;;;;;9.35;7.15;;;;;;;;;;4943219;28;20051;-75
2022/08/26 01:44:48;;;;;;;7.80;6.93;;;;;;;;;;4958374;28;20053;-74
2022/08/26 01:47:15;;;;;;;8.90;7.82;;;;;;;;;;4942321;28;20053;-75
2022/08/26 01:49:45;;;;;;;8.70;7.30;;;;;;;;;;4945246;28;20043;-74
2022/08/26 01:52:13;;;;;;;8.90;6.97;;;;;;;;;;4958607;28;20050;-73
2022/08/26 01:54:41;;;;;;;10.63;6.85;;;;;;;;;;4942896;28;20047;-75
2022/08/26 01:57:13;;;;;;;7.35;6.65;;;;;;;;;;4958333;28;20171;-74
2022/08/26 01:59:41;;;;;;;9.02;7.00;;;;;;;;;;4941976;28;20154;-75
2022/08/26 02:02:07;;;;;;;11.80;7.63;;;;;;;;;;4974446;28;20062;-75
2022/08/26 02:04:39;;;;;;;8.18;7.25;;;;;;;;;;4974400;28;20061;-75
2022/08/26 02:07:08;;;;;;;11.95;7.75;;;;;;;;;;4959042;28;20141;-75
2022/08/26 02:09:39;;;;;;;8.75;7.13;;;;;;;;;;4957956;28;20505;-75
2022/08/26 02:12:08;;;;;;;8.30;6.72;;;;;;;;;;4958519;28;20106;-75
2022/08/26 02:14:40;;;;;;;8.25;7.45;;;;;;;;;;4942828;28;20050;-75
2022/08/26 02:17:09;;;;;;;7.70;6.60;;;;;;;;;;4943782;28;20065;-74
2022/08/26 02:19:39;;;;;;;9.75;8.07;;;;;;;;;;4958126;28;20054;-73
2022/08/26 02:22:10;;;;;;;8.18;7.20;;;;;;;;;;4958419;28;20057;-75
2022/08/26 02:25:11;;;;;;;7.70;6.93;;;;;;;;;;4943302;28;20058;-74
2022/08/26 02:27:38;;;;;;;8.48;7.22;;;;;;;;;;4933598;28;20051;-75
2022/08/26 02:30:24;;;;;;;8.57;7.70;;;;;;;;;;4957917;28;20051;-74
2022/08/26 02:32:53;;;;;;;9.00;7.47;;;;;;;;;;4974559;28;20502;-74
2022/08/26 02:35:22;;;;;;;9.25;7.80;;;;;;;;;;4942156;28;20485;-74
2022/08/26 02:37:50;;;;;;;9.10;7.72;;;;;;;;;;4957562;28;20141;-75
2022/08/26 02:40:20;;;;;;;11.45;8.15;;;;;;;;;;4957448;28;20051;-74
2022/08/26 02:42:47;;;;;;;8.68;7.35;;;;;;;;;;4974942;28;20101;-76
2022/08/26 02:45:14;;;;;;;9.10;7.90;;;;;;;;;;4957940;28;20055;-76
2022/08/26 02:47:49;;;;;;;10.80;7.97;;;;;;;;;;4960446;28;20055;-76
2022/08/26 02:50:15;;;;;;;10.57;9.40;;;;;;;;;;4975001;28;20051;-76
2022/08/26 02:52:43;;;;;;;8.13;7.22;;;;;;;;;;4974041;28;20171;-76
2022/08/26 02:55:09;;;;;;;9.27;8.18;;;;;;;;;;4973726;28;20047;-76
2022/08/26 02:57:36;;;;;;;10.93;9.07;;;;;;;;;;4973709;28;20058;-76
2022/08/26 03:00:06;;;;;;;11.55;8.63;;;;;;;;;;4956090;28;20138;-74
2022/08/26 03:02:33;;;;;;;8.90;8.00;;;;;;;;;;4956577;28;20065;-74
2022/08/26 03:05:00;;;;;;;10.43;8.35;;;;;;;;;;4973162;28;20525;-74
2022/08/26 03:07:28;;;;;;;9.98;8.13;;;;;;;;;;4973539;28;20063;-74
2022/08/26 03:09:55;;;;;;;11.65;9.18;;;;;;;;;;4956166;28;20082;-74
2022/08/26 03:12:22;;;;;;;11.32;8.68;;;;;;;;;;4973545;28;20446;-74
2022/08/26 03:14:51;;;;;;;9.45;8.43;;;;;;;;;;4973315;28;20090;-74
2022/08/26 03:17:17;;;;;;;11.30;8.75;;;;;;;;;;4972006;28;20047;-74
2022/08/26 03:19:44;;;;;;;9.52;8.30;;;;;;;;;;4972865;28;20043;-74
2022/08/26 03:22:11;;;;;;;13.10;9.13;;;;;;;;;;4973120;28;20138;-74
2022/08/26 03:24:40;;;;;;;10.60;9.48;;;;;;;;;;4973244;28;20126;-74
2022/08/26 03:27:11;;;;;;;9.52;7.82;;;;;;;;;;4973145;28;20422;-74
2022/08/26 03:32:25;;;;;;;14.93;9.13;;;;;;;;;;4973370;28;20054;-74
2022/08/26 03:34:52;;;;;;;14.18;8.70;;;;;;;;;;4973324;28;20047;-74
2022/08/26 03:37:20;;;;;;;12.55;9.50;;;;;;;;;;4973468;28;20053;-74
2022/08/26 03:39:47;;;;;;;9.05;8.10;;;;;;;;;;4972978;28;20082;-73
2022/08/26 03:42:14;;;;;;;11.18;8.90;;;;;;;;;;4971681;28;20047;-74
2022/08/26 03:44:41;;;;;;;13.23;9.18;;;;;;;;;;4976865;28;20430;-75
2022/08/26 03:47:09;;;;;;;12.60;9.85;;;;;;;;;;4977164;28;20086;-74
2022/08/26 03:49:36;;;;;;;10.45;9.35;;;;;;;;;;4959454;28;20050;-75
2022/08/26 03:52:03;;;;;;;10.02;8.70;;;;;;;;;;4976915;28;20074;-75
2022/08/26 03:54:31;;;;;;;12.13;9.27;;;;;;;;;;4976573;28;20051;-74
2022/08/26 03:56:58;;;;;;;11.48;9.20;;;;;;;;;;4976829;28;20086;-75
2022/08/26 03:59:25;;;;;;;12.93;9.30;;;;;;;;;;4976817;28;20046;-74
2022/08/26 04:01:53;;;;;;;12.25;9.63;;;;;;;;;;4976965;28;20135;-74
2022/08/26 04:04:20;;;;;;;11.38;9.52;;;;;;;;;;4959701;28;20050;-74
2022/08/26 04:06:48;;;;;;;13.02;9.63;;;;;;;;;;4959856;28;20051;-74
2022/08/26 04:09:19;;;;;;;10.95;9.32;;;;;;;;;;4959151;28;20502;-74
2022/08/26 04:11:47;;;;;;;10.38;8.68;;;;;;;;;;4959731;28;20427;-74
2022/08/26 04:14:19;;;;;;;14.32;9.73;;;;;;;;;;4959761;28;20054;-75
2022/08/26 04:16:46;;;;;;;11.10;9.35;;;;;;;;;;4976493;28;20601;-74
2022/08/26 04:19:13;;;;;;;11.43;9.68;;;;;;;;;;4976152;28;20092;-74
2022/08/26 04:21:40;;;;;;;11.35;9.82;;;;;;;;;;4967266;28;20055;-74
2022/08/26 04:24:10;;;;;;;14.25;9.20;;;;;;;;;;4977655;28;20125;-75
2022/08/26 04:26:38;;;;;;;13.52;9.82;;;;;;;;;;4976554;28;20055;-75
2022/08/26 04:29:11;;;;;;;11.45;9.43;;;;;;;;;;4959498;28;20058;-75
2022/08/26 04:31:38;;;;;;;13.02;10.10;;;;;;;;;;4976139;28;20050;-75
2022/08/26 04:34:05;;;;;;;13.60;10.80;;;;;;;;;;4976209;28;20050;-75
2022/08/26 04:36:31;;;;;;;13.40;10.02;;;;;;;;;;4958829;28;20084;-74
2022/08/26 04:39:01;;;;;;;12.98;10.63;;;;;;;;;;4976089;28;20177;-72
2022/08/26 04:41:28;;;;;;;15.27;10.07;;;;;;;;;;4958973;28;20062;-73
2022/08/26 04:43:57;;;;;;;12.02;9.85;;;;;;;;;;4975928;28;20094;-72
2022/08/26 04:46:24;;;;;;;12.48;10.15;;;;;;;;;;4975614;28;20430;-73
2022/08/26 04:48:52;;;;;;;13.70;10.00;;;;;;;;;;4975234;28;20059;-72
2022/08/26 04:51:26;;;;;;;12.10;10.13;;;;;;;;;;4976089;28;20057;-73
2022/08/26 04:53:55;;;;;;;15.95;10.65;;;;;;;;;;4975318;28;20498;-72
2022/08/26 04:56:27;;;;;;;13.73;9.52;;;;;;;;;;4991284;28;20046;-72
2022/08/26 04:58:54;;;;;;;15.27;10.73;;;;;;;;;;4994924;28;20046;-73
2022/08/26 05:01:21;;;;;;;13.57;9.68;;;;;;;;;;4979060;28;20046;-73
2022/08/26 05:03:50;;;;;;;11.43;10.30;;;;;;;;;;4987229;28;20062;-73
2022/08/26 05:06:18;;;;;;;12.05;10.52;;;;;;;;;;4995224;28;20241;-73
2022/08/26 05:08:45;;;;;;;13.70;9.68;;;;;;;;;;4991487;28;20064;-73
2022/08/26 05:11:12;;;;;;;14.23;11.00;;;;;;;;;;4975635;28;20054;-74
2022/08/26 05:13:39;;;;;;;15.80;10.30;;;;;;;;;;4975351;28;20046;-74
2022/08/26 05:16:07;;;;;;;15.35;11.23;;;;;;;;;;4975383;28;20051;-73
2022/08/26 05:18:37;;;;;;;12.48;10.10;;;;;;;;;;4975346;28;20058;-73
2022/08/26 05:21:05;;;;;;;14.38;10.30;;;;;;;;;;4975479;28;20473;-73
2022/08/26 05:23:34;;;;;;;14.95;10.32;;;;;;;;;;4975519;28;20149;-73
2022/08/26 05:26:01;;;;;;;15.93;11.43;;;;;;;;;;4975260;28;20061;-73
2022/08/26 05:28:30;;;;;;;16.85;10.25;;;;;;;;;;4974877;28;20098;-73
2022/08/26 05:30:57;;;;;;;17.85;10.65;;;;;;;;;;4975073;28;20050;-73
2022/08/26 05:33:24;;;;;;;14.85;9.90;;;;;;;;;;4974540;28;20096;-73
2022/08/26 05:35:51;;;;;;;11.20;9.32;;;;;;;;;;4974875;28;20066;-73
2022/08/26 05:38:20;;;;;;;13.43;8.63;;;;;;;;;;4974838;28;20182;-73
2022/08/26 05:40:49;;;;;;;13.93;9.50;;;;;;;;;;4971938;28;20482;-69
2022/08/26 05:43:19;;;;;;;13.80;10.05;;;;;;;;;;4973104;28;20065;-69
2022/08/26 05:45:47;;;;;;;13.48;9.68;;;;;;;;;;4972801;28;20141;-68
2022/08/26 05:48:16;;;;;;;15.75;9.25;;;;;;;;;;4940001;28;20050;-69
2022/08/26 05:50:48;;;;;;;15.52;11.13;;;;;;;;;;4972799;28;20498;-69
2022/08/26 05:53:17;;;;;;;14.73;9.35;;;;;;;;;;4972580;28;20042;-69
2022/08/26 05:55:50;;;;;;;10.32;8.80;;;;;;;;;;4972765;28;20573;-69
2022/08/26 05:58:21;;;;;;;10.98;9.32;;;;;;;;;;4973062;28;20054;-69
2022/08/26 06:01:05;;;;;;;16.50;9.70;;;;;;;;;;4972722;28;20440;-69
2022/08/26 06:03:34;;;;;;;18.40;9.15;;;;;;;;;;4972943;28;20058;-69
2022/08/26 06:06:08;;;;;;;11.93;8.90;;;;;;;;;;4971877;28;20053;-69
2022/08/26 06:08:36;;;;;;;10.60;9.05;;;;;;;;;;4972184;28;20050;-69
2022/08/26 06:11:06;;;;;;;11.95;9.35;;;;;;;;;;4972503;28;20046;-69
2022/08/26 06:13:33;;;;;;;10.52;9.05;;;;;;;;;;4972478;28;20055;-69
2022/08/26 06:16:03;;;;;;;14.00;8.88;;;;;;;;;;4972395;28;20113;-69
2022/08/26 06:18:33;;;;;;;14.23;9.18;;;;;;;;;;4971619;28;20074;-69
2022/08/26 06:21:21;;;;;;;12.52;9.60;;;;;;;;;;4972643;28;20042;-68
2022/08/26 06:26:35;;;;;;;13.93;9.30;;;;;;;;;;4972534;28;20062;-68
2022/08/26 06:29:03;;;;;;;12.55;8.65;;;;;;;;;;4971695;28;20054;-69
2022/08/26 06:31:31;;;;;;;13.68;10.45;;;;;;;;;;4971690;28;20465;-70
2022/08/26 06:33:58;;;;;;;11.15;8.73;;;;;;;;;;4971729;28;20065;-69
2022/08/26 06:36:27;;;;;;;10.32;9.07;;;;;;;;;;4972085;28;20105;-69
2022/08/26 06:38:54;;;;;;;15.60;10.13;;;;;;;;;;4971627;28;20055;-69
2022/08/26 06:41:22;;;;;;;17.10;9.90;;;;;;;;;;4971876;28;20043;-69
2022/08/26 06:43:49;;;;;;;13.35;9.00;;;;;;;;;;4971725;28;20054;-69
2022/08/26 06:46:17;;;;;;;14.80;9.20;;;;;;;;;;4971674;28;20149;-69
2022/08/26 06:48:44;;;;;;;13.82;9.65;;;;;;;;;;4971428;28;20050;-68
2022/08/26 06:51:17;;;;;;;12.10;8.98;;;;;;;;;;4971611;28;20047;-68
2022/08/26 06:53:45;;;;;;;14.88;9.70;;;;;;;;;;4969925;28;20053;-70
2022/08/26 06:56:16;;;;;;;12.85;8.75;;;;;;;;;;4963253;28;20191;-65
2022/08/26 06:58:44;;;;;;;12.05;9.25;;;;;;;;;;4970424;28;20051;-72
2022/08/26 07:01:16;;;;;;;11.82;8.55;;;;;;;;;;4971386;28;20068;-72
2022/08/26 07:03:45;;;;;;;12.27;9.57;;;;;;;;;;4969207;28;20055;-66
2022/08/26 07:06:13;;;;;;;12.07;8.43;;;;;;;;;;4969496;28;20046;-65
2022/08/26 07:08:41;;;;;;;13.38;9.43;;;;;;;;;;4970422;28;20054;-66
2022/08/26 07:11:10;;;;;;;9.30;8.20;;;;;;;;;;4958678;28;20047;-66
2022/08/26 07:13:37;;;;;;;9.90;8.30;;;;;;;;;;4969164;28;20130;-64
2022/08/26 07:16:13;;;;;;;12.02;9.27;;;;;;;;;;4967376;28;20058;-66
2022/08/26 07:18:41;;;;;;;18.35;9.25;;;;;;;;;;4967776;28;20050;-67
2022/08/26 07:21:12;;;;;;;11.00;8.25;;;;;;;;;;4968431;28;20081;-65
2022/08/26 07:23:40;;;;;;;10.63;8.50;;;;;;;;;;4965298;28;20165;-66
2022/08/26 07:26:10;;;;;;;13.85;9.40;;;;;;;;;;4967771;28;20055;-65
2022/08/26 07:28:37;;;;;;;16.55;10.05;;;;;;;;;;4968900;28;20046;-66
2022/08/26 07:31:05;;;;;;;11.77;8.60;;;;;;;;;;4969209;28;20585;-68
2022/08/26 07:33:33;;;;;;;7.25;6.55;;;;;;;;;;4943122;28;20054;-65
2022/08/26 07:35:59;;;;;;;9.73;6.45;;;;;;;;;;4967975;28;20105;-67
2022/08/26 07:38:29;;;;;;;6.70;5.80;;;;;;;;;;4968827;28;20070;-67
2022/08/26 07:41:00;;;;;;;7.90;5.40;;;;;;;;;;4968767;28;20105;-69
2022/08/26 07:43:28;;;;;;;7.93;5.80;;;;;;;;;;4964764;28;20074;-65
2022/08/26 07:45:55;;;;;;;6.75;4.63;;;;;;;;;;4968773;28;20062;-67
2022/08/26 07:48:22;;;;;;;5.90;5.03;;;;;;;;;;4967808;28;20459;-67
2022/08/26 07:50:49;;;;;;;5.15;4.68;;;;;;;;;;4967457;28;20046;-66
2022/08/26 07:53:19;;;;;;;7.40;5.30;;;;;;;;;;4969504;28;20054;-68
2022/08/26 07:55:46;;;;;;;7.15;5.28;;;;;;;;;;4967670;28;20061;-82
2022/08/26 07:58:27;;;;;;;5.63;5.00;;;;;;;;;;4966411;28;20494;-73
2022/08/26 08:00:54;;;;;;;5.72;4.90;;;;;;;;;;4971090;28;20054;-76
2022/08/26 08:03:22;;;;;;;5.75;5.25;;;;;;;;;;4970233;28;20057;-76
2022/08/26 08:05:48;;;;;;;5.97;5.15;;;;;;;;;;4972244;28;20054;-72
2022/08/26 08:08:15;;;;;;;5.30;4.80;;;;;;;;;;4969941;28;20418;-76
2022/08/26 08:10:54;;;;;;;5.10;4.60;;;;;;;;;;4953004;28;20054;-75
2022/08/26 08:13:21;;;;;;;5.72;4.43;;;;;;;;;;4936835;28;20051;-73
2022/08/26 08:16:11;;;;;;;6.00;4.32;;;;;;;;;;4948071;28;20137;-76
2022/08/26 08:18:43;;;;;;;5.90;4.82;;;;;;;;;;4969714;28;20494;-76
2022/08/26 08:21:11;;;;;;;7.00;4.55;;;;;;;;;;4922263;28;20077;-69
2022/08/26 08:23:52;;;;;;;5.53;4.38;;;;;;;;;;4969296;28;20058;-69
2022/08/26 08:26:20;;;;;;;5.03;4.53;;;;;;;;;;4970423;28;20182;-67
2022/08/26 08:28:47;;;;;;;5.28;4.78;;;;;;;;;;4970641;28;20061;-69
2022/08/26 08:31:24;;;;;;;5.72;4.60;;;;;;;;;;4974525;28;20047;-68
2022/08/26 08:34:11;;;;;;;6.95;4.80;;;;;;;;;;4973361;28;20438;-68
2022/08/26 08:36:38;;;;;;;9.15;5.20;;;;;;;;;;4973991;28;20051;-67
2022/08/26 08:39:39;;;;;;;7.28;4.90;;;;;;;;;;4973479;28;20054;-76
2022/08/26 08:43:08;;;;;;;7.68;4.78;;;;;;;;;;5075123;27;20385;-72
2022/08/26 08:46:18;;;;;;;7.60;4.35;;;;;;;;;;5049218;28;20048;-76
2022/08/26 08:48:56;;;;;;;5.90;4.80;;;;;;;;;;5051748;28;20052;-69
2022/08/26 08:51:52;;;;;;;7.05;4.78;;;;;;;;;;5045696;28;20049;-71
2022/08/26 08:54:21;;;;;;;7.07;5.18;;;;;;;;;;5046501;28;20098;-70
2022/08/26 08:57:01;;;;;;;9.25;5.55;;;;;;;;;;5037565;28;20048;-69
2022/08/26 08:59:33;;;;;;;7.85;5.05;;;;;;;;;;5052028;28;20053;-72
2022/08/26 09:02:29;;;;;;;9.57;5.50;;;;;;;;;;5029024;28;20045;-65
2022/08/26 09:05:07;;;;;;;7.93;4.72;;;;;;;;;;5025395;28;20053;-67
2022/08/26 09:07:47;;;;;;;7.38;4.40;;;;;;;;;;5026330;28;20072;-68
2022/08/26 09:10:23;;;;;;;6.10;4.22;;;;;;;;;;5009325;28;20056;-68
2022/08/26 09:12:50;;;;;;;4.60;4.20;;;;;;;;;;5026791;28;20071;-68
2022/08/26 09:15:32;;;;;;;5.95;4.30;;;;;;;;;;5042155;28;20045;-72
2022/08/26 09:18:21;;;;;;;5.78;4.45;;;;;;;;;;5021563;28;20085;-72
2022/08/26 09:21:02;;;;;;;5.43;4.10;;;;;;;;;;5021754;28;20060;-64
2022/08/26 09:23:30;;;;;;;7.72;4.60;;;;;;;;;;5056930;28;20519;-63
2022/08/26 09:26:12;;;;;;;4.63;4.18;;;;;;;;;;5045814;28;20045;-63
2022/08/26 09:28:42;;;;;;;5.45;4.25;;;;;;;;;;5049062;28;20534;-65
2022/08/26 09:31:10;;;;;;;6.43;4.60;;;;;;;;;;5051245;28;20550;-64
2022/08/26 09:33:39;;;;;;;6.05;4.43;;;;;;;;;;5054019;28;20103;-64
2022/08/26 09:36:21;;;;;;;7.05;4.32;;;;;;;;;;5051332;28;20049;-66
2022/08/26 09:38:49;;;;;;;7.13;4.18;;;;;;;;;;5051107;28;20417;-64
2022/08/26 09:41:23;;;;;;;13.32;4.88;;;;;;;;;;5050448;28;20053;-63
2022/08/26 09:44:12;;;;;;;6.32;4.30;;;;;;;;;;5054461;28;20056;-70
2022/08/26 09:46:53;;;;;;;6.43;4.65;;;;;;;;;;5057860;28;20056;-70
2022/08/26 09:49:31;;;;;;;5.93;4.57;;;;;;;;;;5055630;28;20496;-76
2022/08/26 09:52:12;;;;;;;8.77;4.53;;;;;;;;;;5050412;28;20045;-68
2022/08/26 09:54:40;;;;;;;7.80;4.70;;;;;;;;;;5040575;28;20049;-67
2022/08/26 09:57:17;;;;;;;7.65;4.22;;;;;;;;;;5024606;28;20506;-70
2022/08/26 09:59:43;;;;;;;5.97;4.80;;;;;;;;;;5039761;28;20095;-70
2022/08/26 10:02:20;;;;;;;7.20;5.05;;;;;;;;;;5035197;28;20045;-70
2022/08/26 10:04:50;;;;;;;5.65;5.00;;;;;;;;;;5040807;28;20053;-69
2022/08/26 10:07:41;;;;;;;7.45;4.40;;;;;;;;;;5041091;28;20061;-69
2022/08/26 10:10:16;;;;;;;6.68;5.05;;;;;;;;;;5036598;28;20420;-69
2022/08/26 10:13:02;;;;;;;6.43;4.90;;;;;;;;;;5040067;28;20041;-66
2022/08/26 10:15:40;;;;;;;11.70;4.82;;;;;;;;;;5029828;28;20049;-71
2022/08/26 10:18:28;;;;;;;8.18;4.72;;;;;;;;;;5009399;28;20496;-69
2022/08/26 10:21:18;;;;;;;5.68;4.68;;;;;;;;;;5036595;28;20111;-71
2022/08/26 10:23:48;;;;;;;8.15;5.03;;;;;;;;;;5013135;28;20111;-67
2022/08/26 10:26:26;;;;;;;5.60;4.13;;;;;;;;;;5039508;28;20053;-69
2022/08/26 10:29:05;;;;;;;8.45;5.05;;;;;;;;;;5041937;28;20070;-72
2022/08/26 10:31:42;;;;;;;10.35;5.15;;;;;;;;;;5019664;28;20752;-67
2022/08/26 10:34:09;;;;;;;8.85;4.47;;;;;;;;;;5022164;28;20056;-66
2022/08/26 10:36:48;;;;;;;10.23;5.20;;;;;;;;;;5039550;28;20416;-69
2022/08/26 10:39:56;;;;;;;8.95;5.10;;;;;;;;;;5029929;28;20107;-65
2022/08/26 10:42:42;;;;;;;8.90;4.97;;;;;;;;;;5041801;28;20132;-65
2022/08/26 10:45:18;;;;;;;10.98;5.70;;;;;;;;;;5034975;28;20416;-65
2022/08/26 10:47:45;;;;;;;13.80;5.28;;;;;;;;;;5033627;28;20057;-65
2022/08/26 10:50:13;;;;;;;9.55;5.15;;;;;;;;;;5042380;28;20505;-65
2022/08/26 10:53:07;;;;;;;7.05;5.07;;;;;;;;;;5038202;28;20041;-65
2022/08/26 10:55:42;;;;;;;;;;;;;;;;;;5040385;28;20080;-65
2022/08/26 10:58:47;;;;;;;8.27;4.15;;;;;;;;;;5039897;28;19930;-65
2022/08/26 11:01:42;;;;;;;12.27;5.28;;;;;;;;;;5036793;28;20484;-65
2022/08/26 11:05:06;;;;;;;8.82;4.07;;;;;;;;;;5038688;28;20052;-66
2022/08/26 11:07:45;;;;;;;7.50;3.60;;;;;;;;;;5007467;28;20493;-64
2022/08/26 11:10:52;;;;;;;5.97;3.67;;;;;;;;;;5004782;28;20050;-65
2022/08/26 11:13:18;;;;;;;6.10;3.75;;;;;;;;;;5034458;28;20483;-65
2022/08/26 11:15:48;;;;;;;7.32;4.53;;;;;;;;;;5042518;28;20068;-65
2022/08/26 11:18:53;;;;;;;7.40;4.30;;;;;;;;;;5039078;28;20049;-65
2022/08/26 11:21:42;;;;;;;9.25;4.22;;;;;;;;;;5008261;28;20516;-65
2022/08/26 11:24:50;;;;;;;10.35;4.18;;;;;;;;;;5029976;28;20570;-65
2022/08/26 11:27:23;;;;;;;9.07;4.78;;;;;;;;;;5031159;28;20049;-64
2022/08/26 11:30:14;;;;;;;9.40;4.68;;;;;;;;;;5030986;28;20042;-66
2022/08/26 11:32:52;;;;;;;13.73;5.32;;;;;;;;;;5039732;28;20492;-65
2022/08/26 11:35:18;;;;;;;9.27;4.55;;;;;;;;;;5036268;28;20046;-66
2022/08/26 11:38:00;;;;;;;9.77;5.65;;;;;;;;;;5036858;28;20052;-66
2022/08/26 11:40:37;;;;;;;9.25;5.47;;;;;;;;;;5037029;28;20048;-65
2022/08/26 11:43:12;;;;;;;9.38;5.22;;;;;;;;;;5033519;28;20045;-65
2022/08/26 11:45:41;;;;;;;14.82;6.35;;;;;;;;;;5036717;28;20049;-65
2022/08/26 11:48:24;;;;;;;10.25;5.50;;;;;;;;;;5038546;28;20049;-66
2022/08/26 11:50:58;;;;;;;8.48;5.65;;;;;;;;;;5035212;28;20064;-66
2022/08/26 11:53:25;;;;;;;11.45;8.45;;;;;;;;;;5038879;28;20526;-65
2022/08/26 11:55:56;;;;;;;14.10;6.68;;;;;;;;;;5038106;28;20136;-66
2022/08/26 11:58:24;;;;;;;10.43;5.53;;;;;;;;;;5034246;28;20049;-65
2022/08/26 12:00:51;;;;;;;12.38;6.60;;;;;;;;;;5018639;28;20151;-66
2022/08/26 12:03:21;;;;;;;8.38;6.07;;;;;;;;;;5036998;28;20049;-65
2022/08/26 12:05:51;;;;;;;9.95;5.38;;;;;;;;;;5038038;28;20045;-65
2022/08/26 12:08:22;;;;;;;10.73;5.95;;;;;;;;;;5034163;28;20124;-65
2022/08/26 12:11:09;;;;;;;13.50;6.35;;;;;;;;;;5020171;28;20503;-65
2022/08/26 12:13:37;;;;;;;12.85;6.75;;;;;;;;;;5043287;28;20555;-65
2022/08/26 12:16:04;;;;;;;9.57;5.60;;;;;;;;;;5038766;28;20476;-65
2022/08/26 12:18:34;;;;;;;11.65;6.28;;;;;;;;;;5037352;28;20049;-64
2022/08/26 12:21:28;;;;;;;14.75;5.65;;;;;;;;;;5030254;28;20041;-65
2022/08/26 12:24:00;;;;;;;9.27;5.05;;;;;;;;;;5035736;28;20053;-65
2022/08/26 12:26:31;;;;;;;8.98;5.20;;;;;;;;;;5019909;28;20053;-65
2022/08/26 12:29:01;;;;;;;12.27;6.00;;;;;;;;;;5040045;28;20423;-65
2022/08/26 12:31:46;;;;;;;11.70;5.60;;;;;;;;;;5035504;28;20124;-65
2022/08/26 12:34:17;;;;;;;9.73;5.40;;;;;;;;;;5035409;28;20056;-65
2022/08/26 12:36:57;;;;;;;10.27;5.40;;;;;;;;;;5039658;28;20057;-65
2022/08/26 12:39:26;;;;;;;10.75;5.68;;;;;;;;;;5038789;28;20057;-65
2022/08/26 12:41:54;;;;;;;9.40;5.10;;;;;;;;;;5037700;28;20048;-65
2022/08/26 12:44:59;;;;;;;9.57;5.03;;;;;;;;;;5036314;28;20041;-65
2022/08/26 12:47:30;;;;;;;13.85;5.47;;;;;;;;;;5039950;28;20073;-65
2022/08/26 12:50:23;;;;;;;12.82;5.18;;;;;;;;;;5037735;28;20128;-65
2022/08/26 12:52:58;;;;;;;9.20;5.18;;;;;;;;;;5036709;28;20056;-65
2022/08/26 12:55:31;;;;;;;12.90;6.45;;;;;;;;;;5035113;28;20049;-65
2022/08/26 12:58:13;;;;;;;9.00;5.13;;;;;;;;;;5040628;28;20053;-65
2022/08/26 13:00:42;;;;;;;8.30;4.68;;;;;;;;;;5033942;28;20064;-65
2022/08/26 13:03:42;;;;;;;8.63;4.88;;;;;;;;;;5033885;28;20489;-66
2022/08/26 13:06:22;;;;;;;9.32;4.07;;;;;;;;;;5036682;28;20052;-66
2022/08/26 13:09:07;;;;;;;9.75;4.18;;;;;;;;;;5040183;28;20049;-66
2022/08/26 13:11:40;;;;;;;8.57;4.47;;;;;;;;;;5038907;28;20044;-65
2022/08/26 13:14:15;;;;;;;11.45;4.20;;;;;;;;;;5036284;28;20045;-66
2022/08/26 13:16:49;;;;;;;10.02;4.05;;;;;;;;;;5038745;28;20053;-66
2022/08/26 13:19:19;;;;;;;7.35;3.95;;;;;;;;;;5038186;28;20064;-66
2022/08/26 13:21:47;;;;;;;9.75;4.03;;;;;;;;;;5033604;28;20684;-65
2022/08/26 13:24:27;;;;;;;5.53;3.40;;;;;;;;;;5035116;28;20388;-66
2022/08/26 13:26:55;;;;;;;8.27;3.42;;;;;;;;;;5045786;28;20045;-66
2022/08/26 13:29:21;;;;;;;3.95;3.20;;;;;;;;;;5048617;28;20076;-65
2022/08/26 13:31:49;;;;;;;6.57;3.08;;;;;;;;;;5054125;28;20045;-65
2022/08/26 13:34:18;;;;;;;5.45;3.35;;;;;;;;;;5054810;28;20053;-65
2022/08/26 13:36:50;;;;;;;7.15;4.13;;;;;;;;;;5053229;28;20443;-64
2022/08/26 13:39:16;;;;;;;6.28;3.72;;;;;;;;;;5054498;28;20077;-65
2022/08/26 13:41:43;;;;;;;8.98;3.30;;;;;;;;;;5053164;28;20045;-65
2022/08/26 13:44:10;;;;;;;6.22;3.67;;;;;;;;;;5055017;28;20131;-65
2022/08/26 13:46:37;;;;;;;8.50;3.45;;;;;;;;;;5054661;28;20049;-67
2022/08/26 13:49:04;;;;;;;6.63;3.58;;;;;;;;;;5054602;28;20052;-65
2022/08/26 13:51:30;;;;;;;12.70;4.20;;;;;;;;;;5053850;28;20511;-66
2022/08/26 13:53:58;;;;;;;11.98;4.38;;;;;;;;;;5053264;28;20053;-65
2022/08/26 13:56:28;;;;;;;12.57;4.93;;;;;;;;;;5054365;28;20059;-66
2022/08/26 13:58:56;;;;;;;7.80;4.30;;;;;;;;;;5049419;28;20056;-65
2022/08/26 14:01:22;;;;;;;12.20;4.45;;;;;;;;;;5054677;28;20075;-65
2022/08/26 14:03:49;;;;;;;13.98;4.28;;;;;;;;;;5054583;28;20051;-65
2022/08/26 14:06:16;;;;;;;7.90;4.00;;;;;;;;;;5051705;28;20055;-65
2022/08/26 14:08:43;;;;;;;9.07;4.32;;;;;;;;;;5043692;28;20079;-65
2022/08/26 14:11:10;;;;;;;7.82;4.28;;;;;;;;;;5052373;28;20053;-65
2022/08/26 14:13:38;;;;;;;9.35;4.25;;;;;;;;;;5037623;28;20347;-65
2022/08/26 14:16:08;;;;;;;10.63;4.15;;;;;;;;;;5031572;28;20053;-65
2022/08/26 14:18:35;;;;;;;10.32;3.83;;;;;;;;;;5048571;28;20131;-65
2022/08/26 14:21:07;;;;;;;15.88;4.55;;;;;;;;;;5036034;28;20049;-68
2022/08/26 14:23:34;;;;;;;10.63;4.30;;;;;;;;;;5061437;28;20053;-67
2022/08/26 14:26:06;;;;;;;10.27;5.25;;;;;;;;;;5048686;28;20061;-67
2022/08/26 14:28:34;;;;;;;7.72;3.92;;;;;;;;;;5041058;28;20054;-67
2022/08/26 14:31:00;;;;;;;10.07;3.83;;;;;;;;;;5041791;28;20049;-67
2022/08/26 14:33:28;;;;;;;5.55;4.18;;;;;;;;;;5038684;28;20155;-67
2022/08/26 14:36:26;;;;;;;11.00;4.75;;;;;;;;;;5041860;28;20052;-67
2022/08/26 14:38:45;;;;;;;11.15;5.28;;;;;;;;;;5087907;22;20056;-64
2022/08/26 14:41:13;;;;;;;9.55;5.03;;;;;;;;;;5055753;28;20053;-65
2022/08/26 14:43:48;;;;;;;8.02;5.05;;;;;;;;;;5039515;28;20044;-65
2022/08/26 14:46:15;;;;;;;11.35;4.80;;;;;;;;;;5053249;28;20427;-65
2022/08/26 14:48:42;;;;;;;12.70;4.85;;;;;;;;;;5037570;28;20099;-65
2022/08/26 14:51:08;;;;;;;11.20;4.93;;;;;;;;;;5033592;28;20053;-65
2022/08/26 14:56:20;;;;;;;10.77;4.82;;;;;;;;;;5033667;28;20049;-65
2022/08/26 14:58:47;;;;;;;10.80;5.07;;;;;;;;;;5033335;28;20059;-65
2022/08/26 15:01:14;;;;;;;11.50;4.80;;;;;;;;;;5041312;28;20049;-65
2022/08/26 15:03:41;;;;;;;8.50;5.03;;;;;;;;;;5033064;28;20562;-65
2022/08/26 15:06:16;;;;;;;14.10;5.78;;;;;;;;;;5039295;28;20049;-64
2022/08/26 15:08:42;;;;;;;12.43;5.63;;;;;;;;;;5041932;28;20063;-65
2022/08/26 15:11:09;;;;;;;12.27;5.50;;;;;;;;;;5025960;28;20045;-65
2022/08/26 15:13:36;;;;;;;10.90;4.95;;;;;;;;;;5027741;28;20038;-65
2022/08/26 15:16:02;;;;;;;11.45;5.00;;;;;;;;;;5044369;28;20056;-65